Flag for USA

Past Weather in 39°03'46.6"N, 84°14'31.9"W, USA — Yesterday and Last 2 Weeks

Currently: 29 °F. Clear. (Weather station: Cincinnati Municipal Airport Lunken Field, USA). See more current weather

Past Weather in 39°03'46.6"N, 84°14'31.9"W — Graph

°F

39°03'46.6"N, 84°14'31.9"W Temperature Yesterday

Maximum temperature yesterday: 57 °F (at 6:53 am)
Minimum temperature yesterday: 29 °F (at 9:53 pm)
Average temperature yesterday: 47 °F

High & Low Weather Summary for the Past Weeks

 TemperatureHumidityPressure
High65 °F (Nov 24, 2:53 pm)100% (Nov 25, 4:34 am)30.60 "Hg (Nov 25, 4:34 am)
Low16 °F (Nov 21, 5:53 am)21% (Nov 21, 2:53 pm)29.45 "Hg (Nov 27, 8:53 am)
Average40 °F70%30.15 "Hg
* Reported Nov 18 11:53 pm — Dec 3 11:53 pm, 39°03'46.6"N, 84°14'31.9"W. Weather by CustomWeather, © 2022

Note: Actual official high and low records may vary slightly from our data, if they occured in-between our weather recording intervals... More about our weather records

39°03'46.6"N, 84°14'31.9"W Weather History for the Previous 24 Hours

Scroll right to see more
 ConditionsComfort  
Time TempWeatherWind HumidityBarometerVisibility
11:53 pm
Sat, Dec 3
30 °FClear.8 mph66%30.47 "Hg10 mi
10:53 pm29 °FClear.3 mph75%30.47 "Hg10 mi
9:53 pm29 °FClear.No wind82%30.47 "Hg10 mi
8:53 pm31 °FClear.3 mph69%30.45 "Hg10 mi
7:53 pm35 °FClear.6 mph59%30.45 "Hg10 mi
5:53 pm40 °FClear.10 mph49%30.42 "Hg10 mi
4:53 pm43 °FSunny.8 mph45%30.40 "Hg10 mi
3:53 pm46 °FSunny.8 mph40%30.37 "Hg10 mi
2:53 pm48 °FSunny.8 mph41%30.35 "Hg10 mi
1:53 pm48 °FSunny.16 mph41%30.33 "Hg10 mi
12:53 pm48 °FSunny.16 mph44%30.31 "Hg10 mi
11:53 am47 °FSunny.13 mph52%30.29 "Hg10 mi
10:53 am47 °FSunny.16 mph48%30.26 "Hg10 mi
9:53 am47 °FOvercast.12 mph61%30.22 "Hg10 mi
8:53 am50 °FMore clouds than sun.17 mph74%30.17 "Hg7 mi
8:19 am57 °FMostly cloudy.13 mph81%30.09 "Hg10 mi
7:53 am56 °FMostly cloudy.10 mph84%30.08 "Hg10 mi
6:53 am57 °FOvercast.13 mph83%30.04 "Hg10 mi
5:53 am56 °FMostly cloudy.10 mph93%30.01 "Hg10 mi
4:53 am55 °FLight rain. Fog.12 mph96%29.99 "Hg3 mi
3:53 am54 °FLight rain. Fog.14 mph97%29.98 "Hg5 mi
3:34 am54 °FLight rain. Fog.13 mph93%29.99 "Hg3 mi
2:53 am52 °FLight rain. Fog.10 mph97%29.99 "Hg4 mi
2:09 am53 °FMostly cloudy.14 mph89%30.00 "Hg9 mi
1:53 am52 °FLight rain. Fog.16 mph89%29.99 "Hg6 mi
Weather by CustomWeather, © 2022

See weather overview